Time;durP1;ratioP1;P1;durP2;ratioP2;P2;SDS_P1;SDS_P2;PMS_P1;PMS_P2;Temp;Humidity;BMP_temperature;BMP_pressure;BME280_temperature;BME280_humidity;BME280_pressure;Samples;Min_cycle;Max_cycle;Signal;HPM_P1;HPM_P2
2023/07/22 00:01:39;;;;;;;3.40;2.40;;;12.40;99.90;;;;;;25713155;23;20019;-59
2023/07/22 00:11:41;;;;;;;3.67;2.20;;;12.60;99.90;;;;;;25712429;23;20008;-59
2023/07/22 00:21:43;;;;;;;3.40;2.33;;;12.80;99.90;;;;;;25712109;23;20071;-46
2023/07/22 00:31:44;;;;;;;4.50;2.78;;;12.60;99.90;;;;;;25712123;23;20001;-60
2023/07/22 00:41:46;;;;;;;5.32;3.65;;;12.60;99.90;;;;;;25713355;23;20379;-59
2023/07/22 00:51:48;;;;;;;6.65;3.70;;;12.40;99.90;;;;;;25684938;23;20016;-49
2023/07/22 01:01:50;;;;;;;4.35;3.42;;;12.30;99.90;;;;;;25711803;23;20028;-46
2023/07/22 01:11:51;;;;;;;4.13;2.70;;;12.30;99.90;;;;;;25711304;23;20333;-58
2023/07/22 01:21:54;;;;;;;3.85;2.55;;;12.40;99.90;;;;;;25710950;23;20027;-46
2023/07/22 01:31:56;;;;;;;3.42;2.70;;;12.40;99.90;;;;;;25714720;23;20016;-58
2023/07/22 01:41:57;;;;;;;3.45;2.70;;;12.30;99.90;;;;;;25718494;23;20019;-58
2023/07/22 01:52:00;;;;;;;5.05;3.00;;;12.20;99.90;;;;;;25691189;23;20016;-59
2023/07/22 02:02:02;;;;;;;4.75;2.88;;;12.30;99.90;;;;;;25717930;23;20444;-59
2023/07/22 02:12:04;;;;;;;3.17;2.40;;;12.20;99.90;;;;;;25717376;23;20008;-59
2023/07/22 02:22:05;;;;;;;5.32;2.33;;;12.50;99.90;;;;;;25715894;23;20009;-49
2023/07/22 02:32:08;;;;;;;3.85;2.30;;;12.70;99.90;;;;;;25716804;23;20323;-46
2023/07/22 02:42:09;;;;;;;2.88;2.22;;;12.40;99.90;;;;;;25715970;23;20000;-50
2023/07/22 02:52:11;;;;;;;2.47;1.60;;;12.70;99.90;;;;;;25689297;23;20024;-59
2023/07/22 03:02:14;;;;;;;2.45;1.80;;;13.00;99.90;;;;;;25715557;23;20004;-60
2023/07/22 03:12:15;;;;;;;2.33;1.50;;;13.00;99.90;;;;;;25714973;23;20005;-59
2023/07/22 03:22:18;;;;;;;1.27;1.00;;;13.00;99.90;;;;;;25714528;23;20005;-59
2023/07/22 03:32:19;;;;;;;6.28;1.30;;;13.00;99.90;;;;;;25687684;23;20009;-45
2023/07/22 03:42:21;;;;;;;1.67;1.25;;;13.10;99.90;;;;;;25713744;23;20009;-58
2023/07/22 03:52:23;;;;;;;2.70;1.17;;;13.20;99.90;;;;;;25713033;23;20012;-58
2023/07/22 04:02:25;;;;;;;1.80;1.15;;;13.20;99.90;;;;;;25713213;23;20059;-49
2023/07/22 04:12:27;;;;;;;2.25;1.55;;;12.90;99.90;;;;;;25712353;23;20380;-59
2023/07/22 04:22:29;;;;;;;3.13;1.63;;;12.80;99.90;;;;;;25712509;23;20008;-44
2023/07/22 04:32:33;;;;;;;2.50;1.58;;;13.00;99.90;;;;;;25687043;23;20447;-58
2023/07/22 04:42:35;;;;;;;2.33;1.42;;;13.10;99.90;;;;;;25712067;23;20009;-46
2023/07/22 04:52:36;;;;;;;2.78;1.35;;;13.10;99.90;;;;;;25711998;23;20075;-59
2023/07/22 05:02:38;;;;;;;1.92;1.27;;;13.20;99.90;;;;;;25712047;23;20016;-59
2023/07/22 05:12:43;;;;;;;2.72;1.63;;;13.40;99.90;;;;;;25719852;23;20067;-45
2023/07/22 05:22:45;;;;;;;1.90;1.33;;;13.90;99.90;;;;;;25719225;23;20035;-59
2023/07/22 05:32:46;;;;;;;2.10;1.48;;;14.20;99.90;;;;;;25719224;23;20379;-56
2023/07/22 05:42:48;;;;;;;2.50;1.50;;;14.40;99.90;;;;;;25718509;23;20027;-59
2023/07/22 05:52:50;;;;;;;2.42;1.58;;;14.50;99.90;;;;;;25718140;23;20009;-59
2023/07/22 06:02:52;;;;;;;2.55;1.60;;;15.00;99.90;;;;;;25718018;23;20027;-59
2023/07/22 06:12:53;;;;;;;2.38;1.80;;;15.10;99.90;;;;;;25691036;23;20443;-58
2023/07/22 06:22:55;;;;;;;3.08;1.67;;;15.60;99.90;;;;;;25717013;23;20305;-58
2023/07/22 06:32:56;;;;;;;3.22;1.67;;;16.70;99.90;;;;;;25716588;23;20000;-45
2023/07/22 06:42:58;;;;;;;2.20;1.50;;;17.80;99.90;;;;;;25716248;23;20440;-49
2023/07/22 06:52:59;;;;;;;2.20;1.50;;;20.50;99.90;;;;;;25715427;23;20012;-46
2023/07/22 07:03:01;;;;;;;1.65;1.38;;;22.30;98.50;;;;;;25716429;23;20008;-46
2023/07/22 07:13:03;;;;;;;2.35;1.90;;;23.20;96.60;;;;;;25715918;23;20004;-46
2023/07/22 07:23:04;;;;;;;2.28;1.70;;;24.00;95.10;;;;;;25715737;23;20054;-49
2023/07/22 07:33:06;;;;;;;1.83;1.63;;;25.10;93.90;;;;;;25715124;23;20011;-59
2023/07/22 07:43:07;;;;;;;1.80;1.70;;;25.10;92.00;;;;;;25715488;23;20005;-47
2023/07/22 07:53:09;;;;;;;2.92;1.63;;;24.70;93.20;;;;;;25714473;23;20016;-49
2023/07/22 08:03:10;;;;;;;2.08;1.88;;;25.60;95.20;;;;;;25714488;23;20085;-47
2023/07/22 08:13:12;;;;;;;3.85;1.98;;;26.00;96.00;;;;;;25714645;23;20004;-48
2023/07/22 08:23:14;;;;;;;3.40;1.80;;;25.90;95.90;;;;;;25714136;23;20277;-60
2023/07/22 08:33:16;;;;;;;2.72;1.98;;;25.50;96.20;;;;;;25687354;23;20031;-59
2023/07/22 08:43:21;;;;;;;4.00;2.55;;;24.90;96.60;;;;;;25713364;23;20031;-59
2023/07/22 08:53:25;;;;;;;2.85;2.45;;;23.90;98.50;;;;;;25712336;23;20043;-59
2023/07/22 09:03:27;;;;;;;4.10;2.50;;;22.80;99.60;;;;;;25712520;23;20004;-59
2023/07/22 09:13:29;;;;;;;2.42;2.22;;;23.30;99.40;;;;;;25712488;23;20336;-59
2023/07/22 09:23:38;;;;;;;4.43;2.40;;;24.90;99.00;;;;;;25712534;23;20012;-59
2023/07/22 09:33:39;;;;;;;5.20;3.30;;;26.00;96.40;;;;;;25753377;23;20340;-45
2023/07/22 09:43:41;;;;;;;3.42;2.60;;;25.60;95.80;;;;;;25712009;23;20011;-47
2023/07/22 09:53:59;;;;;;;4.28;2.35;;;25.50;95.50;;;;;;25715956;23;20284;-48
2023/07/22 10:04:05;;;;;;;4.18;2.78;;;24.70;96.30;;;;;;25718216;23;20336;-50
2023/07/22 10:14:06;;;;;;;3.85;2.60;;;24.00;97.50;;;;;;25691881;23;20009;-46
2023/07/22 10:24:10;;;;;;;3.40;2.92;;;21.50;99.90;;;;;;25718387;23;20444;-48
2023/07/22 10:34:12;;;;;;;4.78;3.30;;;19.90;99.90;;;;;;25716091;23;20008;-59
2023/07/22 10:44:14;;;;;;;3.70;2.90;;;19.10;99.90;;;;;;25716927;23;20436;-58
2023/07/22 10:54:34;;;;;;;5.40;3.40;;;18.60;99.90;;;;;;25716594;23;20016;-59
2023/07/22 11:04:36;;;;;;;4.32;3.42;;;18.40;99.90;;;;;;25758438;23;20009;-59
2023/07/22 11:14:46;;;;;;;5.13;4.55;;;18.70;99.90;;;;;;25716454;23;20498;-57
2023/07/22 11:24:48;;;;;;;5.40;3.15;;;18.30;99.90;;;;;;25757632;23;20103;-57
2023/07/22 11:34:55;;;;;;;3.95;2.63;;;20.20;99.90;;;;;;25715916;23;20092;-58
2023/07/22 11:44:57;;;;;;;3.97;2.30;;;23.50;99.90;;;;;;25756678;23;20001;-59
2023/07/22 11:55:03;;;;;;;2.75;2.30;;;25.60;99.90;;;;;;25714655;23;20013;-59
2023/07/22 12:05:05;;;;;;;2.95;2.40;;;26.10;98.40;;;;;;25714629;23;20008;-59
2023/07/22 12:15:20;;;;;;;4.15;2.53;;;26.00;97.50;;;;;;25713903;23;20078;-57
2023/07/22 12:25:22;;;;;;;3.85;2.67;;;26.10;96.90;;;;;;25755193;23;20004;-46
2023/07/22 12:35:24;;;;;;;4.35;2.92;;;26.00;97.70;;;;;;25713662;23;20035;-45
2023/07/22 12:45:25;;;;;;;5.40;2.85;;;25.30;98.60;;;;;;25713244;23;20055;-59
2023/07/22 12:55:27;;;;;;;4.03;3.28;;;25.60;98.30;;;;;;25713024;23;20012;-59
2023/07/22 13:05:29;;;;;;;5.88;3.20;;;25.60;97.70;;;;;;25713265;23;20345;-58
2023/07/22 13:15:32;;;;;;;5.00;3.30;;;26.00;98.90;;;;;;25712630;23;20340;-52
2023/07/22 13:25:34;;;;;;;4.00;3.20;;;26.40;99.90;;;;;;25714133;23;20004;-58
2023/07/22 13:35:36;;;;;;;4.55;3.25;;;26.40;98.70;;;;;;25720219;23;20008;-59
2023/07/22 13:45:37;;;;;;;5.05;3.30;;;26.20;98.10;;;;;;25720126;23;20000;-57
2023/07/22 13:55:39;;;;;;;4.70;3.03;;;26.50;97.90;;;;;;25719426;23;20012;-46
2023/07/22 14:05:41;;;;;;;5.05;3.55;;;26.00;97.00;;;;;;25719393;23;20009;-46
2023/07/22 14:15:43;;;;;;;6.40;3.63;;;25.20;99.00;;;;;;25717074;23;20008;-45
2023/07/22 14:25:44;;;;;;;5.65;3.75;;;24.90;99.10;;;;;;25718276;23;20440;-58
2023/07/22 14:35:46;;;;;;;4.88;3.40;;;24.20;99.90;;;;;;25717725;23;20008;-45
2023/07/22 14:45:47;;;;;;;4.50;3.40;;;24.40;99.90;;;;;;25717324;23;20067;-46
2023/07/22 14:55:49;;;;;;;5.25;3.30;;;25.30;99.00;;;;;;25716531;23;20375;-46
2023/07/22 15:05:51;;;;;;;4.80;3.28;;;25.50;99.90;;;;;;25716594;23;20509;-47
2023/07/22 15:15:56;;;;;;;5.57;3.80;;;25.90;99.90;;;;;;25714623;23;20111;-46
2023/07/22 15:25:58;;;;;;;4.28;3.40;;;26.90;98.00;;;;;;25715843;23;20402;-46
2023/07/22 15:35:59;;;;;;;4.68;3.83;;;27.00;98.10;;;;;;25715405;23;20063;-51
2023/07/22 15:46:01;;;;;;;5.28;2.97;;;26.70;96.50;;;;;;25715024;23;20004;-51
2023/07/22 15:56:03;;;;;;;4.40;3.13;;;26.20;98.30;;;;;;25714348;23;20009;-48
2023/07/22 16:06:05;;;;;;;11.85;4.03;;;25.60;98.40;;;;;;25714504;23;20005;-58
2023/07/22 16:16:07;;;;;;;4.32;3.42;;;25.10;97.80;;;;;;25713983;23;20009;-47
2023/07/22 16:26:08;;;;;;;5.30;4.10;;;23.60;99.90;;;;;;25713818;23;20058;-56
2023/07/22 16:36:10;;;;;;;5.45;4.22;;;22.20;99.90;;;;;;25712888;23;20009;-46
2023/07/22 16:46:12;;;;;;;8.70;4.82;;;21.10;99.90;;;;;;25712450;23;20237;-57
2023/07/22 16:56:13;;;;;;;7.50;5.65;;;20.40;99.90;;;;;;25712708;23;20048;-57
2023/07/22 17:06:15;;;;;;;7.85;5.32;;;19.60;99.90;;;;;;25693948;23;20004;-46
2023/07/22 17:16:16;;;;;;;9.43;5.78;;;19.00;99.90;;;;;;25720316;23;20005;-60
2023/07/22 17:26:18;;;;;;;13.02;8.70;;;18.60;99.90;;;;;;25720221;23;20323;-57
2023/07/22 17:36:20;;;;;;;10.90;7.68;;;18.00;99.90;;;;;;25719109;23;20009;-57
2023/07/22 17:46:21;;;;;;;10.35;7.95;;;17.60;99.90;;;;;;25719296;23;20309;-56
2023/07/22 17:56:23;;;;;;;46.45;31.70;;;17.50;99.90;;;;;;25718963;23;20391;-57
2023/07/22 18:06:24;;;;;;;11.50;8.50;;;17.10;99.90;;;;;;25719233;23;20379;-55
2023/07/22 18:16:27;;;;;;;12.00;9.50;;;16.60;99.90;;;;;;25718293;23;20005;-58
2023/07/22 18:26:28;;;;;;;15.68;10.98;;;16.60;99.90;;;;;;25718022;23;20000;-57
2023/07/22 18:36:31;;;;;;;10.80;8.15;;;16.60;99.90;;;;;;25690750;23;20012;-57
2023/07/22 18:46:33;;;;;;;10.25;6.18;;;16.40;99.90;;;;;;25715959;23;20004;-46
2023/07/22 18:56:34;;;;;;;7.82;5.50;;;15.70;99.90;;;;;;25715222;23;20012;-49
2023/07/22 19:06:36;;;;;;;7.40;5.30;;;15.10;99.90;;;;;;25715024;23;20071;-57
2023/07/22 19:16:37;;;;;;;16.80;11.68;;;14.80;99.90;;;;;;25716843;23;20009;-57
2023/07/22 19:26:39;;;;;;;40.13;24.25;;;14.60;99.90;;;;;;25715039;23;20001;-57
2023/07/22 19:36:41;;;;;;;5.60;3.97;;;14.50;99.90;;;;;;25716123;23;20392;-55
2023/07/22 19:46:43;;;;;;;7.43;3.92;;;14.40;99.90;;;;;;25714700;23;20009;-57
2023/07/22 19:56:44;;;;;;;3.90;3.17;;;14.60;99.90;;;;;;25687243;23;20012;-46
2023/07/22 20:06:46;;;;;;;5.88;3.22;;;14.50;99.90;;;;;;25713716;23;20005;-47
2023/07/22 20:16:47;;;;;;;4.78;3.13;;;14.40;99.90;;;;;;25713482;23;20051;-48
2023/07/22 20:26:49;;;;;;;5.85;3.58;;;14.40;99.90;;;;;;25712737;23;20008;-49
2023/07/22 20:36:50;;;;;;;5.32;3.60;;;14.60;99.90;;;;;;25684832;23;20013;-58
2023/07/22 20:46:52;;;;;;;4.72;3.45;;;14.90;99.90;;;;;;25711055;23;20000;-49
2023/07/22 20:56:54;;;;;;;6.22;4.03;;;15.10;99.90;;;;;;25710546;23;20017;-48
2023/07/22 21:06:57;;;;;;;9.38;5.45;;;15.30;99.90;;;;;;25711756;23;20020;-48
2023/07/22 21:16:58;;;;;;;10.93;5.75;;;15.10;99.90;;;;;;25684167;23;20008;-51
2023/07/22 21:27:00;;;;;;;9.15;5.63;;;15.10;99.90;;;;;;25710257;23;20067;-51
2023/07/22 21:37:02;;;;;;;8.77;6.38;;;14.90;99.90;;;;;;25624320;23;20029;-57
2023/07/22 21:47:04;;;;;;;10.15;6.32;;;14.80;99.90;;;;;;25589349;23;20117;-50
2023/07/22 21:57:06;;;;;;;10.25;6.03;;;14.90;99.90;;;;;;25594105;23;20071;-53
2023/07/22 22:07:08;;;;;;;12.15;7.20;;;14.90;99.90;;;;;;25594084;23;20005;-54
2023/07/22 22:17:09;;;;;;;10.02;7.53;;;14.80;99.90;;;;;;25593217;23;20072;-47
2023/07/22 22:27:12;;;;;;;16.50;11.15;;;14.70;99.90;;;;;;25593580;23;20012;-56
2023/07/22 22:37:14;;;;;;;14.68;9.90;;;14.70;99.90;;;;;;25592140;23;20314;-57
2023/07/22 22:47:15;;;;;;;10.40;7.03;;;14.80;99.90;;;;;;25567100;23;20013;-54
2023/07/22 22:57:17;;;;;;;13.05;7.10;;;15.00;99.90;;;;;;25566889;23;20023;-47
2023/07/22 23:07:18;;;;;;;11.48;7.68;;;15.00;99.90;;;;;;25592723;23;20001;-54
2023/07/22 23:17:21;;;;;;;8.88;6.85;;;15.10;99.90;;;;;;25593731;23;20498;-56
2023/07/22 23:27:22;;;;;;;10.00;6.18;;;15.00;99.90;;;;;;25591904;23;20017;-52
2023/07/22 23:37:24;;;;;;;9.35;5.80;;;14.70;99.90;;;;;;25590226;23;20020;-51
2023/07/22 23:47:25;;;;;;;8.93;6.18;;;14.60;99.90;;;;;;25591220;23;20020;-56
2023/07/22 23:57:27;;;;;;;9.75;7.00;;;14.50;99.90;;;;;;25590512;23;20009;-55
